Time;durP1;ratioP1;P1;durP2;ratioP2;P2;SDS_P1;SDS_P2;PMS_P1;PMS_P2;Temp;Humidity;BMP_temperature;BMP_pressure;BME280_temperature;BME280_humidity;BME280_pressure;Samples;Min_cycle;Max_cycle;Signal;HPM_P1;HPM_P2
2022/11/03 00:01:36;;;;;;;;;;;;;;;15.89;50.11;101238.44;5057343;28;1984;-57
2022/11/03 00:04:02;;;;;;;;;;;;;;;15.77;49.09;101244.06;5057143;28;1086;-57
2022/11/03 00:06:28;;;;;;;;;;;;;;;15.69;48.74;101239.84;5056458;28;1092;-58
2022/11/03 00:08:56;;;;;;;;;;;;;;;15.62;48.23;101243.88;5057245;28;1096;-58
2022/11/03 00:11:21;;;;;;;;;;;;;;;15.55;47.99;101252.28;5056747;28;880;-58
2022/11/03 00:13:46;;;;;;;;;;;;;;;15.53;47.65;101257.22;5057039;28;1119;-58
2022/11/03 00:16:12;;;;;;;;;;;;;;;16.49;48.64;101246.72;5056733;28;1135;-58
2022/11/03 00:18:38;;;;;;;;;;;;;;;16.05;49.78;101254.00;5056906;28;1127;-58
2022/11/03 00:21:07;;;;;;;;;;;;;;;15.76;49.53;101255.28;5059664;28;2512;-58
2022/11/03 00:23:33;;;;;;;;;;;;;;;15.64;48.96;101249.91;5056636;28;974;-58
2022/11/03 00:26:17;;;;;;;;;;;;;;;15.64;48.63;101252.66;5056758;28;1108;-57
2022/11/03 00:28:43;;;;;;;;;;;;;;;16.30;49.85;101249.84;5056294;28;1100;-58
2022/11/03 00:31:10;;;;;;;;;;;;;;;15.90;49.65;101256.56;5056227;28;1147;-57
2022/11/03 00:33:35;;;;;;;;;;;;;;;15.72;49.40;101258.53;5056609;28;1128;-57
2022/11/03 00:36:01;;;;;;;;;;;;;;;15.65;48.58;101254.31;5056359;28;831;-57
2022/11/03 00:38:27;;;;;;;;;;;;;;;15.62;48.41;101263.88;5056609;28;1108;-57
2022/11/03 00:40:53;;;;;;;;;;;;;;;16.29;48.86;101253.69;5056388;28;1985;-57
2022/11/03 00:43:19;;;;;;;;;;;;;;;16.03;49.61;101261.66;5056087;28;1096;-57
2022/11/03 00:45:45;;;;;;;;;;;;;;;15.74;49.51;101266.50;5056477;28;1285;-57
2022/11/03 00:48:28;;;;;;;;;;;;;;;15.65;48.92;101276.25;5055962;28;1598;-57
2022/11/03 00:50:54;;;;;;;;;;;;;;;15.59;48.00;101269.06;5046711;28;2425;-57
2022/11/03 00:53:19;;;;;;;;;;;;;;;15.52;47.80;101272.00;5063854;28;1135;-57
2022/11/03 00:55:49;;;;;;;;;;;;;;;15.43;47.76;101262.53;5056551;28;1136;-58
2022/11/03 00:58:14;;;;;;;;;;;;;;;16.49;48.40;101266.75;5056097;28;1029;-57
2022/11/03 01:00:39;;;;;;;;;;;;;;;15.96;49.66;101271.16;5055980;28;1898;-57
2022/11/03 01:03:05;;;;;;;;;;;;;;;15.69;49.34;101278.22;5056539;28;1080;-57
2022/11/03 01:08:14;;;;;;;;;;;;;;;16.83;49.20;101272.00;5056516;28;1191;-57
2022/11/03 01:11:42;;;;;;;;;;;;;;;16.06;50.10;101277.59;5055338;28;1072;-56
2022/11/03 01:13:25;;;;;;;;;;;;;;;15.67;49.81;101277.66;5056169;28;1504;-58
2022/11/03 01:15:50;;;;;;;;;;;;;;;15.69;48.77;101274.66;5056123;28;1115;-58
2022/11/03 01:18:16;;;;;;;;;;;;;;;15.68;48.56;101282.06;5059193;28;1203;-59
2022/11/03 01:20:41;;;;;;;;;;;;;;;15.52;47.97;101281.03;5059878;28;2349;-58
2022/11/03 01:23:07;;;;;;;;;;;;;;;15.59;47.43;101282.78;5059817;28;1135;-57
2022/11/03 01:25:34;;;;;;;;;;;;;;;15.48;47.64;101281.81;5059849;28;1177;-57
2022/11/03 01:28:00;;;;;;;;;;;;;;;15.46;47.42;101283.94;5060391;28;1084;-58
2022/11/03 01:30:25;;;;;;;;;;;;;;;16.79;48.61;101261.78;5041975;28;1272;-58
2022/11/03 01:32:51;;;;;;;;;;;;;;;15.88;49.96;101277.94;5059638;28;1174;-57
2022/11/03 01:35:16;;;;;;;;;;;;;;;15.71;49.12;101270.59;5059219;28;857;-58
2022/11/03 01:37:42;;;;;;;;;;;;;;;15.55;48.93;101286.00;5060001;28;1136;-57
2022/11/03 01:40:08;;;;;;;;;;;;;;;15.50;48.16;101282.38;5059451;28;1135;-58
2022/11/03 01:42:33;;;;;;;;;;;;;;;16.69;48.64;101285.34;5059267;28;1973;-57
2022/11/03 01:44:59;;;;;;;;;;;;;;;15.84;49.99;101283.09;5059665;28;1089;-57
2022/11/03 01:47:28;;;;;;;;;;;;;;;15.58;49.32;101292.88;5059381;28;1132;-57
2022/11/03 01:49:55;;;;;;;;;;;;;;;15.64;48.40;101286.41;5059381;28;1135;-57
2022/11/03 01:52:20;;;;;;;;;;;;;;;16.73;49.06;101289.22;5053781;28;2430;-57
2022/11/03 01:54:47;;;;;;;;;;;;;;;16.01;50.18;101298.66;5059511;28;1237;-57
2022/11/03 01:57:14;;;;;;;;;;;;;;;15.67;49.80;101291.38;5059849;28;1182;-57
2022/11/03 01:59:40;;;;;;;;;;;;;;;15.62;48.81;101299.53;5058986;28;982;-57
2022/11/03 02:02:05;;;;;;;;;;;;;;;15.60;48.38;101292.63;5059254;28;1921;-57
2022/11/03 02:04:31;;;;;;;;;;;;;;;15.46;47.98;101293.03;5059277;28;1136;-58
2022/11/03 02:06:59;;;;;;;;;;;;;;;15.41;47.67;101298.41;5041690;28;1120;-58
2022/11/03 02:09:24;;;;;;;;;;;;;;;15.43;47.66;101306.38;5058851;28;1187;-58
2022/11/03 02:12:05;;;;;;;;;;;;;;;15.38;47.21;101294.28;5059183;28;1080;-57
2022/11/03 02:14:30;;;;;;;;;;;;;;;15.34;47.17;101298.59;5059879;28;1171;-58
2022/11/03 02:16:56;;;;;;;;;;;;;;;15.69;47.58;101293.84;5059022;28;1198;-57
2022/11/03 02:19:25;;;;;;;;;;;;;;;16.31;49.03;101289.91;5041374;28;1238;-58
2022/11/03 02:22:17;;;;;;;;;;;;;;;15.72;49.61;101298.81;5058745;28;2547;-57
2022/11/03 02:24:42;;;;;;;;;;;;;;;15.59;48.61;101294.56;5035318;28;1219;-58
2022/11/03 02:27:07;;;;;;;;;;;;;;;16.02;48.80;101306.63;5058701;28;1147;-58
2022/11/03 02:29:33;;;;;;;;;;;;;;;16.04;49.57;101300.88;5057948;28;1108;-57
2022/11/03 02:32:19;;;;;;;;;;;;;;;15.66;49.73;101308.06;5058725;28;1108;-57
2022/11/03 02:34:47;;;;;;;;;;;;;;;15.95;49.57;101303.25;5058076;28;1640;-57
2022/11/03 02:37:16;;;;;;;;;;;;;;;16.24;50.04;101314.00;5040433;28;965;-56
2022/11/03 02:39:48;;;;;;;;;;;;;;;15.77;49.98;101309.03;5040978;28;1250;-56
2022/11/03 02:42:14;;;;;;;;;;;;;;;15.65;49.21;101309.16;5058585;28;1918;-57
2022/11/03 02:44:40;;;;;;;;;;;;;;;15.56;48.77;101322.47;5058745;28;1218;-57
2022/11/03 02:47:08;;;;;;;;;;;;;;;15.50;48.27;101334.44;5023478;28;1140;-57
2022/11/03 02:49:37;;;;;;;;;;;;;;;15.71;48.52;101325.44;5040960;28;1112;-57
2022/11/03 02:52:03;;;;;;;;;;;;;;;16.26;49.40;101342.00;5058013;28;2395;-57
2022/11/03 02:54:38;;;;;;;;;;;;;;;15.82;49.62;101331.91;5058857;28;1143;-56
2022/11/03 02:57:08;;;;;;;;;;;;;;;15.65;48.85;101342.88;5040704;28;1160;-57
2022/11/03 02:59:40;;;;;;;;;;;;;;;15.63;48.25;101336.81;5057920;28;1174;-56
2022/11/03 03:02:09;;;;;;;;;;;;;;;15.51;48.26;101336.91;5056659;28;1979;-57
2022/11/03 03:04:38;;;;;;;;;;;;;;;16.80;49.01;101323.84;5040730;28;1144;-58
2022/11/03 03:07:05;;;;;;;;;;;;;;;15.89;50.34;101320.72;5058298;28;1108;-58
2022/11/03 03:09:32;;;;;;;;;;;;;;;15.78;49.54;101327.97;5057919;28;1344;-58
2022/11/03 03:11:57;;;;;;;;;;;;;;;15.57;49.13;101330.44;5057621;28;1147;-58
2022/11/03 03:14:41;;;;;;;;;;;;;;;15.55;48.51;101342.75;5053134;28;1206;-58
2022/11/03 03:17:08;;;;;;;;;;;;;;;15.49;48.02;101344.59;5050181;28;1073;-58
2022/11/03 03:19:42;;;;;;;;;;;;;;;16.54;48.63;101349.16;5040478;28;1179;-58
2022/11/03 03:22:31;;;;;;;;;;;;;;;16.14;50.18;101322.13;5057696;28;2718;-58
2022/11/03 03:25:23;;;;;;;;;;;;;;;15.80;49.77;101335.97;5029095;28;1299;-58
2022/11/03 03:27:49;;;;;;;;;;;;;;;15.69;48.99;101355.00;5054790;28;1065;-58
2022/11/03 03:30:14;;;;;;;;;;;;;;;15.54;48.42;101346.56;5040140;28;1124;-58
2022/11/03 03:32:42;;;;;;;;;;;;;;;16.89;48.89;101347.06;5057849;28;1135;-58
2022/11/03 03:35:08;;;;;;;;;;;;;;;16.26;50.08;101344.75;5039948;28;1152;-58
2022/11/03 03:37:34;;;;;;;;;;;;;;;15.84;49.75;101362.63;5039957;28;894;-58
2022/11/03 03:39:59;;;;;;;;;;;;;;;15.68;49.38;101367.06;5056613;28;1203;-58
2022/11/03 03:42:25;;;;;;;;;;;;;;;15.60;48.87;101370.22;5056863;28;1913;-58
2022/11/03 03:44:51;;;;;;;;;;;;;;;15.51;48.17;101352.56;5029482;28;1172;-58
2022/11/03 03:47:42;;;;;;;;;;;;;;;16.20;48.97;101354.84;5039489;28;1192;-58
2022/11/03 03:50:08;;;;;;;;;;;;;;;16.02;50.19;101356.00;5047333;28;1341;-58
2022/11/03 03:52:33;;;;;;;;;;;;;;;15.76;49.74;101359.47;5051614;28;2257;-57
2022/11/03 03:54:59;;;;;;;;;;;;;;;15.72;48.88;101348.19;5057100;28;1220;-57
2022/11/03 03:57:24;;;;;;;;;;;;;;;15.55;48.52;101349.03;5057218;28;1163;-57
2022/11/03 03:59:50;;;;;;;;;;;;;;;15.49;48.27;101332.81;5056460;28;1226;-57
2022/11/03 04:02:15;;;;;;;;;;;;;;;15.50;47.90;101345.41;5057063;28;1972;-57
2022/11/03 04:04:41;;;;;;;;;;;;;;;16.14;48.34;101338.59;5057126;28;1194;-57
2022/11/03 04:09:50;;;;;;;;;;;;;;;15.70;49.76;101359.41;5045012;28;1072;-56
2022/11/03 04:23:12;;;;;;;;;;;;;;;15.63;48.80;101361.50;5043116;28;1053;-54
2022/11/03 04:25:37;;;;;;;;;;;;;;;15.56;48.09;101366.34;5056530;28;886;-56
2022/11/03 04:28:12;;;;;;;;;;;;;;;15.40;48.11;101366.13;5056255;28;1120;-57
2022/11/03 04:30:37;;;;;;;;;;;;;;;15.39;47.66;101369.94;5056372;28;1303;-57
2022/11/03 04:33:04;;;;;;;;;;;;;;;16.67;48.42;101371.81;5056276;28;1147;-56
2022/11/03 04:35:29;;;;;;;;;;;;;;;15.78;49.89;101363.63;5056669;28;1076;-55
2022/11/03 04:37:58;;;;;;;;;;;;;;;15.58;49.25;101369.63;5055813;28;891;-56
2022/11/03 04:40:23;;;;;;;;;;;;;;;16.76;49.04;101384.81;5038304;28;1906;-56
2022/11/03 04:42:49;;;;;;;;;;;;;;;15.95;50.03;101373.72;5056531;28;1131;-56
2022/11/03 04:45:20;;;;;;;;;;;;;;;15.76;49.62;101376.75;5056455;28;1166;-56
2022/11/03 04:47:46;;;;;;;;;;;;;;;15.57;48.63;101381.69;5055932;28;1108;-56
2022/11/03 04:50:15;;;;;;;;;;;;;;;15.54;48.15;101374.81;5055744;28;953;-56
2022/11/03 04:52:41;;;;;;;;;;;;;;;16.13;48.99;101389.88;5055865;28;2663;-56
2022/11/03 04:55:08;;;;;;;;;;;;;;;16.13;49.94;101386.28;5056631;28;1088;-56
2022/11/03 04:57:33;;;;;;;;;;;;;;;15.76;49.87;101395.94;5038477;28;1168;-56
2022/11/03 04:59:59;;;;;;;;;;;;;;;15.56;49.04;101399.22;5055932;28;1182;-57
2022/11/03 05:02:28;;;;;;;;;;;;;;;15.60;48.70;101399.53;5055273;28;1897;-59
2022/11/03 05:04:54;;;;;;;;;;;;;;;15.50;48.27;101397.47;5037552;28;1152;-58
2022/11/03 05:07:25;;;;;;;;;;;;;;;15.39;48.16;101402.81;5056133;28;1206;-57
2022/11/03 05:09:50;;;;;;;;;;;;;;;16.71;48.64;101409.47;5037850;28;1109;-57
2022/11/03 05:12:16;;;;;;;;;;;;;;;15.79;50.03;101416.56;5055158;28;1084;-57
2022/11/03 05:14:41;;;;;;;;;;;;;;;15.69;49.19;101420.78;5038414;28;1202;-58
2022/11/03 05:17:14;;;;;;;;;;;;;;;15.57;48.62;101418.16;5037974;28;1120;-57
2022/11/03 05:19:39;;;;;;;;;;;;;;;15.52;48.91;101428.22;5055681;28;1186;-57
2022/11/03 05:22:05;;;;;;;;;;;;;;;16.01;49.55;101433.88;5040922;28;2655;-57
2022/11/03 05:24:30;;;;;;;;;;;;;;;15.68;49.41;101434.75;5037300;28;1319;-57
2022/11/03 05:26:56;;;;;;;;;;;;;;;15.46;49.16;101434.69;5055757;28;1076;-58
2022/11/03 05:29:22;;;;;;;;;;;;;;;17.07;49.12;101444.75;5055671;28;1115;-60
2022/11/03 05:31:48;;;;;;;;;;;;;;;16.07;50.62;101454.00;5055755;28;1120;-58
2022/11/03 05:34:13;;;;;;;;;;;;;;;15.85;50.07;101462.19;5038109;28;1101;-58
2022/11/03 05:36:39;;;;;;;;;;;;;;;15.70;49.07;101460.03;5055116;28;1140;-57
2022/11/03 05:39:19;;;;;;;;;;;;;;;15.51;48.59;101462.19;5055519;28;1144;-58
2022/11/03 05:41:45;;;;;;;;;;;;;;;16.85;49.14;101464.00;5055469;28;1890;-58
2022/11/03 05:44:29;;;;;;;;;;;;;;;16.26;50.43;101468.25;5055225;28;1138;-59
2022/11/03 05:46:55;;;;;;;;;;;;;;;15.85;49.73;101470.41;5055345;28;1112;-60
2022/11/03 05:49:21;;;;;;;;;;;;;;;15.73;49.43;101460.34;5054994;28;921;-58
2022/11/03 05:51:46;;;;;;;;;;;;;;;15.58;49.00;101468.31;5037576;28;1852;-57
2022/11/03 05:54:16;;;;;;;;;;;;;;;15.62;48.39;101474.97;5037899;28;1132;-58
2022/11/03 05:56:42;;;;;;;;;;;;;;;15.64;47.57;101472.81;5037633;28;1187;-58
2022/11/03 05:59:09;;;;;;;;;;;;;;;15.43;47.94;101477.16;5055406;28;1189;-59
2022/11/03 06:01:36;;;;;;;;;;;;;;;16.85;49.23;101469.50;5037031;28;1975;-56
2022/11/03 06:04:20;;;;;;;;;;;;;;;16.03;50.15;101480.28;5056056;28;1183;-57
2022/11/03 06:06:52;;;;;;;;;;;;;;;15.76;49.62;101483.69;5059152;28;1139;-56
2022/11/03 06:09:19;;;;;;;;;;;;;;;15.68;48.96;101478.63;5059287;28;1318;-55
2022/11/03 06:11:45;;;;;;;;;;;;;;;16.74;49.33;101496.81;5059340;28;1092;-57
2022/11/03 06:14:13;;;;;;;;;;;;;;;16.15;50.43;101488.41;5059151;28;1183;-59
2022/11/03 06:16:40;;;;;;;;;;;;;;;15.88;49.92;101500.91;5058889;28;1171;-58
2022/11/03 06:19:32;;;;;;;;;;;;;;;15.79;49.15;101504.31;5058187;28;1127;-57
2022/11/03 06:21:58;;;;;;;;;;;;;;;15.73;48.21;101493.25;5053059;28;2739;-58
2022/11/03 06:24:24;;;;;;;;;;;;;;;15.66;48.16;101503.56;5040565;28;1173;-58
2022/11/03 06:26:49;;;;;;;;;;;;;;;15.59;47.72;101497.41;5058558;28;934;-57
2022/11/03 06:29:16;;;;;;;;;;;;;;;15.46;47.88;101497.72;5059012;28;1120;-57
2022/11/03 06:31:42;;;;;;;;;;;;;;;15.95;48.28;101508.97;5045104;28;1147;-58
2022/11/03 06:34:37;;;;;;;;;;;;;;;16.69;48.16;101518.75;5058175;28;1277;-58
2022/11/03 06:37:22;;;;;;;;;;;;;;;16.24;49.91;101503.34;5033298;28;1171;-58
2022/11/03 06:39:48;;;;;;;;;;;;;;;16.11;50.59;101500.97;5058149;28;1477;-58
2022/11/03 06:42:14;;;;;;;;;;;;;;;16.03;50.68;101514.03;5040668;28;1902;-59
2022/11/03 06:44:40;;;;;;;;;;;;;;;15.95;51.28;101516.34;5035859;28;1160;-59
2022/11/03 06:47:12;;;;;;;;;;;;;;;15.84;51.63;101518.13;5043679;28;1286;-60
2022/11/03 06:49:38;;;;;;;;;;;;;;;15.80;51.57;101519.72;5040415;28;1164;-63
2022/11/03 06:52:22;;;;;;;;;;;;;;;15.74;51.81;101511.38;5058027;28;1808;-60
2022/11/03 06:54:48;;;;;;;;;;;;;;;16.68;49.79;101528.06;5058269;28;1085;-60
2022/11/03 06:57:13;;;;;;;;;;;;;;;17.03;48.93;101515.88;5058175;28;1222;-61
2022/11/03 06:59:39;;;;;;;;;;;;;;;16.37;50.81;101513.94;5056654;28;1568;-58
2022/11/03 07:02:09;;;;;;;;;;;;;;;16.12;51.88;101519.06;5038179;28;1910;-60
2022/11/03 07:04:35;;;;;;;;;;;;;;;15.97;51.98;101515.03;5040124;28;1430;-60
2022/11/03 07:07:01;;;;;;;;;;;;;;;15.87;52.33;101517.63;5057824;28;1057;-61
2022/11/03 07:09:26;;;;;;;;;;;;;;;15.80;52.79;101519.72;5055650;28;1267;-60
2022/11/03 07:11:52;;;;;;;;;;;;;;;15.83;53.19;101513.72;5057612;28;1120;-61
2022/11/03 07:14:18;;;;;;;;;;;;;;;16.02;52.79;101522.50;5039306;28;915;-59
2022/11/03 07:16:45;;;;;;;;;;;;;;;17.34;49.53;101518.91;5031153;28;1533;-62
2022/11/03 07:19:21;;;;;;;;;;;;;;;16.50;51.70;101520.97;5038484;28;1093;-58
2022/11/03 07:21:46;;;;;;;;;;;;;;;16.16;52.83;101521.06;5047883;28;1945;-62
2022/11/03 07:24:13;;;;;;;;;;;;;;;16.03;52.97;101522.28;5044892;28;1116;-59
2022/11/03 07:26:38;;;;;;;;;;;;;;;15.89;53.68;101529.16;5055287;28;1072;-57
2022/11/03 07:29:03;;;;;;;;;;;;;;;15.82;53.67;101523.03;5057213;28;1120;-58
2022/11/03 07:31:29;;;;;;;;;;;;;;;15.73;53.86;101520.66;5053200;28;1284;-58
2022/11/03 07:33:56;;;;;;;;;;;;;;;15.68;53.99;101528.81;5036660;28;1184;-60
2022/11/03 07:36:21;;;;;;;;;;;;;;;17.30;50.44;101525.19;5049940;28;1120;-61
2022/11/03 07:38:49;;;;;;;;;;;;;;;16.87;51.57;101538.72;5038598;28;826;-60
2022/11/03 07:41:17;;;;;;;;;;;;;;;16.34;53.18;101527.34;5034680;28;1909;-61
2022/11/03 07:43:44;;;;;;;;;;;;;;;16.15;53.81;101526.81;5036251;28;979;-63
2022/11/03 07:46:13;;;;;;;;;;;;;;;16.07;53.94;101523.44;5039351;28;1144;-61
2022/11/03 07:48:45;;;;;;;;;;;;;;;17.30;51.19;101526.03;5026403;28;1152;-62
2022/11/03 07:51:14;;;;;;;;;;;;;;;16.99;51.74;101525.72;5051393;28;2375;-58
2022/11/03 07:53:44;;;;;;;;;;;;;;;16.72;53.49;101520.97;5039028;28;1373;-59
2022/11/03 07:56:25;;;;;;;;;;;;;;;16.48;54.12;101519.56;5054476;28;1324;-60
2022/11/03 07:59:10;;;;;;;;;;;;;;;16.23;54.75;101512.66;5056205;28;1504;-63
2022/11/03 08:01:36;;;;;;;;;;;;;;;16.16;54.79;101512.00;5052731;28;1910;-62
2022/11/03 08:04:05;;;;;;;;;;;;;;;16.11;55.09;101522.91;5054573;28;1519;-62
2022/11/03 08:06:31;;;;;;;;;;;;;;;16.07;55.26;101533.56;5055754;28;1143;-58
2022/11/03 08:08:56;;;;;;;;;;;;;;;15.95;55.35;101528.19;5038521;28;1124;-63
2022/11/03 08:11:23;;;;;;;;;;;;;;;17.58;51.99;101515.81;5051033;28;1337;-60
2022/11/03 08:13:51;;;;;;;;;;;;;;;16.82;53.80;101528.50;5046297;28;993;-59
2022/11/03 08:16:17;;;;;;;;;;;;;;;16.59;54.87;101521.34;5051445;28;1206;-59
2022/11/03 08:18:42;;;;;;;;;;;;;;;16.56;55.75;101532.84;5055539;28;1148;-58
2022/11/03 08:21:08;;;;;;;;;;;;;;;16.40;56.07;101534.59;5043928;28;1898;-62
2022/11/03 08:23:33;;;;;;;;;;;;;;;16.25;56.15;101538.75;5041675;28;1412;-61
2022/11/03 08:25:59;;;;;;;;;;;;;;;17.39;53.71;101527.22;5051043;28;1364;-61
2022/11/03 08:28:24;;;;;;;;;;;;;;;17.13;54.39;101526.13;5054931;28;1208;-60
2022/11/03 08:30:50;;;;;;;;;;;;;;;16.70;55.51;101528.63;5042972;28;1315;-57
2022/11/03 08:33:15;;;;;;;;;;;;;;;16.47;56.06;101528.91;5040514;28;1365;-59
2022/11/03 08:35:41;;;;;;;;;;;;;;;16.37;55.89;101522.19;5035883;28;1381;-59
2022/11/03 08:38:06;;;;;;;;;;;;;;;16.26;56.06;101520.38;5036210;28;1231;-61
2022/11/03 08:40:32;;;;;;;;;;;;;;;16.18;55.88;101523.56;5044901;28;1898;-61
2022/11/03 08:42:57;;;;;;;;;;;;;;;16.11;55.99;101517.44;5036844;28;1354;-59
2022/11/03 08:45:23;;;;;;;;;;;;;;;16.06;56.13;101516.28;5050416;28;1466;-56
2022/11/03 08:47:48;;;;;;;;;;;;;;;16.03;56.19;101513.19;5055572;28;1171;-60
2022/11/03 08:50:14;;;;;;;;;;;;;;;16.45;55.91;101514.59;5056266;28;1183;-58
2022/11/03 08:52:40;;;;;;;;;;;;;;;17.78;53.22;101510.50;5056061;28;2495;-60
2022/11/03 08:55:05;;;;;;;;;;;;;;;16.86;55.61;101504.13;5056076;28;1143;-60
2022/11/03 08:57:30;;;;;;;;;;;;;;;16.48;56.37;101503.94;5053684;28;1255;-59
2022/11/03 08:59:56;;;;;;;;;;;;;;;16.34;56.81;101506.22;5054527;28;1210;-59
2022/11/03 09:02:22;;;;;;;;;;;;;;;16.27;56.93;101496.50;5055149;28;1981;-59
2022/11/03 09:04:47;;;;;;;;;;;;;;;16.23;56.93;101502.50;5055632;28;1187;-62
2022/11/03 09:07:13;;;;;;;;;;;;;;;16.17;56.99;101503.53;5055204;28;1097;-61
2022/11/03 09:09:38;;;;;;;;;;;;;;;16.13;57.05;101496.03;5054373;28;1465;-61
2022/11/03 09:12:04;;;;;;;;;;;;;;;16.04;56.79;101503.88;5053043;28;1388;-59
2022/11/03 09:14:29;;;;;;;;;;;;;;;16.00;56.65;101509.03;5053348;28;1244;-58
2022/11/03 09:16:54;;;;;;;;;;;;;;;16.13;56.92;101496.03;5056057;28;1085;-63
2022/11/03 09:19:20;;;;;;;;;;;;;;;17.33;54.91;101494.44;5055842;28;1159;-62
2022/11/03 09:21:46;;;;;;;;;;;;;;;17.84;53.76;101496.75;5055598;28;2511;-62
2022/11/03 09:24:11;;;;;;;;;;;;;;;17.53;54.21;101493.78;5052855;28;1347;-66
2022/11/03 09:26:37;;;;;;;;;;;;;;;16.36;56.64;101484.84;5052333;28;1399;-65
2022/11/03 09:29:02;;;;;;;;;;;;;;;17.23;55.79;101481.44;5055489;28;1124;-66
2022/11/03 09:31:28;;;;;;;;;;;;;;;18.19;53.56;101476.94;5055760;28;1147;-61
2022/11/03 09:33:53;;;;;;;;;;;;;;;17.86;54.42;101480.81;5054221;28;1341;-64
2022/11/03 09:36:19;;;;;;;;;;;;;;;16.77;56.37;101468.03;5054230;28;1290;-64
2022/11/03 09:38:45;;;;;;;;;;;;;;;17.06;57.06;101478.78;5054831;28;1353;-63
2022/11/03 09:41:16;;;;;;;;;;;;;;;17.99;54.73;101477.63;5045682;28;1914;-66
2022/11/03 09:43:42;;;;;;;;;;;;;;;18.39;53.51;101472.63;5051185;28;1020;-62
2022/11/03 09:46:08;;;;;;;;;;;;;;;17.05;56.15;101468.88;5054934;28;1012;-62
2022/11/03 09:48:33;;;;;;;;;;;;;;;16.60;57.37;101457.94;5056435;28;1758;-64
2022/11/03 09:51:00;;;;;;;;;;;;;;;17.76;55.53;101459.56;5057145;28;1859;-62
2022/11/03 09:53:25;;;;;;;;;;;;;;;18.41;53.73;101465.75;5056156;28;1494;-65
2022/11/03 09:55:50;;;;;;;;;;;;;;;17.54;55.66;101465.19;5056767;28;1187;-61
2022/11/03 09:58:16;;;;;;;;;;;;;;;16.75;56.51;101457.28;5055849;28;1357;-61
2022/11/03 10:00:42;;;;;;;;;;;;;;;17.41;56.89;101453.53;5057145;28;1951;-65
2022/11/03 10:03:12;;;;;;;;;;;;;;;18.11;54.77;101456.22;5056718;28;1164;-66
2022/11/03 10:05:38;;;;;;;;;;;;;;;17.82;54.88;101454.94;5056206;28;1056;-66
2022/11/03 10:08:07;;;;;;;;;;;;;;;16.59;57.23;101452.72;5056647;28;1065;-64
2022/11/03 10:10:33;;;;;;;;;;;;;;;16.99;58.10;101437.78;5042812;28;1309;-65
2022/11/03 10:12:59;;;;;;;;;;;;;;;18.02;55.20;101449.59;5051957;28;1230;-63
2022/11/03 10:15:24;;;;;;;;;;;;;;;18.44;53.87;101440.41;5055717;28;1294;-66
2022/11/03 10:17:50;;;;;;;;;;;;;;;17.02;56.53;101441.94;5057154;28;1375;-62
2022/11/03 10:20:16;;;;;;;;;;;;;;;16.86;58.23;101451.94;5057922;28;1256;-60
2022/11/03 10:22:42;;;;;;;;;;;;;;;17.85;56.10;101437.91;5055255;28;2498;-62
2022/11/03 10:25:25;;;;;;;;;;;;;;;18.39;54.37;101440.38;5038999;28;1152;-64
2022/11/03 10:27:51;;;;;;;;;;;;;;;17.27;56.22;101436.66;5057918;28;1073;-64
2022/11/03 10:30:16;;;;;;;;;;;;;;;16.53;58.57;101437.28;5057038;28;1128;-66
2022/11/03 10:32:42;;;;;;;;;;;;;;;17.71;56.46;101432.03;5061292;28;1128;-62
2022/11/03 10:35:26;;;;;;;;;;;;;;;18.26;54.49;101435.41;5057646;28;1080;-66
2022/11/03 10:37:51;;;;;;;;;;;;;;;17.63;55.59;101430.63;5057753;28;1127;-65
2022/11/03 10:40:35;;;;;;;;;;;;;;;16.54;57.25;101425.22;5058046;28;882;-65
2022/11/03 10:43:01;;;;;;;;;;;;;;;17.52;56.91;101417.91;5056933;28;1160;-67
2022/11/03 10:45:27;;;;;;;;;;;;;;;18.15;54.84;101425.44;5057748;28;1140;-65
2022/11/03 10:48:00;;;;;;;;;;;;;;;18.34;54.17;101407.34;5056363;28;1133;-66
2022/11/03 10:50:25;;;;;;;;;;;;;;;16.85;56.68;101420.03;5055056;28;2348;-64
2022/11/03 10:52:51;;;;;;;;;;;;;;;17.04;58.09;101412.28;5029690;28;973;-64
2022/11/03 10:55:17;;;;;;;;;;;;;;;18.01;55.32;101412.16;5057449;28;1124;-66
2022/11/03 10:57:42;;;;;;;;;;;;;;;18.47;53.93;101398.56;5057472;28;1465;-65
2022/11/03 11:00:17;;;;;;;;;;;;;;;17.56;55.64;101402.53;5039849;28;993;-65
2022/11/03 11:02:43;;;;;;;;;;;;;;;16.56;57.54;101401.91;5057689;28;1922;-61
2022/11/03 11:05:17;;;;;;;;;;;;;;;17.63;56.73;101386.63;5057548;28;984;-61
2022/11/03 11:07:42;;;;;;;;;;;;;;;18.50;54.25;101388.13;5054640;28;1218;-62
2022/11/03 11:10:19;;;;;;;;;;;;;;;17.67;55.63;101381.41;5051826;28;1452;-62
2022/11/03 11:13:03;;;;;;;;;;;;;;;16.76;56.63;101386.75;5036833;28;1096;-64
2022/11/03 11:15:36;;;;;;;;;;;;;;;17.75;56.60;101378.13;5052566;28;1468;-64
2022/11/03 11:18:01;;;;;;;;;;;;;;;18.50;54.54;101385.38;5038819;28;1136;-62
2022/11/03 11:20:28;;;;;;;;;;;;;;;17.87;55.49;101380.69;5057069;28;2380;-64
2022/11/03 11:22:53;;;;;;;;;;;;;;;16.87;56.70;101374.75;5059178;28;1985;-64
2022/11/03 11:25:19;;;;;;;;;;;;;;;17.07;58.73;101373.31;5056212;28;1377;-61
2022/11/03 11:27:44;;;;;;;;;;;;;;;18.06;55.90;101370.91;5054212;28;1033;-64
2022/11/03 11:30:19;;;;;;;;;;;;;;;18.54;54.51;101373.53;5057570;28;1132;-61
2022/11/03 11:32:44;;;;;;;;;;;;;;;17.16;57.08;101371.72;5056996;28;1127;-61
2022/11/03 11:35:17;;;;;;;;;;;;;;;16.58;58.71;101375.00;5057249;28;1245;-65
2022/11/03 11:37:42;;;;;;;;;;;;;;;17.80;56.54;101364.44;5056025;28;1182;-60
2022/11/03 11:40:31;;;;;;;;;;;;;;;18.35;54.99;101364.13;5056745;28;1100;-62
2022/11/03 11:43:03;;;;;;;;;;;;;;;17.58;56.31;101356.31;5043260;28;1914;-63
2022/11/03 11:45:46;;;;;;;;;;;;;;;16.54;57.51;101354.66;5057014;28;1099;-62
2022/11/03 11:48:15;;;;;;;;;;;;;;;17.51;57.39;101356.56;5054686;28;1323;-63
2022/11/03 11:50:41;;;;;;;;;;;;;;;18.23;55.33;101361.59;5039066;28;2463;-61
2022/11/03 11:53:06;;;;;;;;;;;;;;;18.17;54.75;101365.44;5056970;28;904;-60
2022/11/03 11:55:44;;;;;;;;;;;;;;;16.85;57.45;101356.88;5056094;28;1159;-62
2022/11/03 11:58:22;;;;;;;;;;;;;;;17.12;58.46;101350.53;5056075;28;904;-63
2022/11/03 12:00:51;;;;;;;;;;;;;;;18.10;55.70;101349.16;5055708;28;1906;-62
2022/11/03 12:03:16;;;;;;;;;;;;;;;18.53;54.24;101349.81;5055568;28;1127;-62
2022/11/03 12:05:42;;;;;;;;;;;;;;;17.24;56.81;101345.66;5033738;28;1199;-63
2022/11/03 12:08:17;;;;;;;;;;;;;;;16.57;57.10;101336.84;5037381;28;1171;-61
2022/11/03 12:10:50;;;;;;;;;;;;;;;17.55;57.71;101351.38;5055777;28;1073;-59
2022/11/03 12:13:35;;;;;;;;;;;;;;;18.32;55.62;101350.91;5054043;28;1283;-62
2022/11/03 12:16:00;;;;;;;;;;;;;;;17.95;55.71;101349.94;5049663;28;950;-62
2022/11/03 12:18:29;;;;;;;;;;;;;;;16.87;57.31;101338.19;5042780;28;1080;-63
2022/11/03 12:20:54;;;;;;;;;;;;;;;17.00;59.34;101335.06;5042498;28;2299;-62
2022/11/03 12:23:34;;;;;;;;;;;;;;;18.06;56.43;101337.03;5051437;28;1411;-61
2022/11/03 12:26:00;;;;;;;;;;;;;;;18.59;54.85;101340.50;5037601;28;1305;-62
2022/11/03 12:28:32;;;;;;;;;;;;;;;17.45;56.71;101336.44;5052743;28;1258;-63
2022/11/03 12:30:57;;;;;;;;;;;;;;;16.74;56.78;101343.03;5054547;28;1445;-62
2022/11/03 12:33:23;;;;;;;;;;;;;;;17.70;57.84;101343.19;5042146;28;1100;-60
2022/11/03 12:35:48;;;;;;;;;;;;;;;18.29;55.91;101349.50;5055425;28;1144;-65
2022/11/03 12:38:14;;;;;;;;;;;;;;;17.92;56.12;101344.97;5056093;28;1132;-65
2022/11/03 12:40:39;;;;;;;;;;;;;;;16.84;57.56;101349.72;5055932;28;1971;-59
2022/11/03 12:43:04;;;;;;;;;;;;;;;16.62;56.84;101339.66;5053621;28;1270;-57
2022/11/03 12:45:30;;;;;;;;;;;;;;;16.44;56.96;101343.59;5051583;28;1651;-60
2022/11/03 12:47:55;;;;;;;;;;;;;;;16.38;56.75;101339.09;5041188;28;1287;-58
2022/11/03 12:50:21;;;;;;;;;;;;;;;16.35;56.80;101340.44;5050204;28;1634;-55
2022/11/03 12:52:46;;;;;;;;;;;;;;;16.30;56.70;101337.66;5048948;28;2727;-61
2022/11/03 12:55:12;;;;;;;;;;;;;;;16.07;57.92;101339.63;5053743;28;1190;-65
2022/11/03 12:57:37;;;;;;;;;;;;;;;17.13;59.14;101343.94;5047136;28;1133;-59
2022/11/03 13:00:04;;;;;;;;;;;;;;;17.86;57.70;101340.50;5055282;28;1143;-62
2022/11/03 13:02:30;;;;;;;;;;;;;;;18.03;56.88;101338.41;5055237;28;1918;-62
2022/11/03 13:04:56;;;;;;;;;;;;;;;16.79;58.67;101336.78;5055507;28;879;-60
2022/11/03 13:07:21;;;;;;;;;;;;;;;16.50;58.22;101336.22;5042313;28;1131;-58
2022/11/03 13:09:46;;;;;;;;;;;;;;;16.30;57.81;101334.94;5051813;28;1318;-60